Time;durP1;ratioP1;P1;durP2;ratioP2;P2;SDS_P1;SDS_P2;PMS_P1;PMS_P2;Temp;Humidity;BMP_temperature;BMP_pressure;BME280_temperature;BME280_humidity;BME280_pressure;Samples;Min_cycle;Max_cycle;Signal;HPM_P1;HPM_P2
2022/07/15 00:02:13;;;;;;;;;8.00;6.00;;;;;22.28;44.17;100605.81;110645;1258;18659;-63
2022/07/15 00:04:40;;;;;;;;;6.33;6.00;;;;;22.22;44.11;100606.11;110633;1258;19561;-61
2022/07/15 00:07:07;;;;;;;;;8.33;8.33;;;;;22.23;44.29;100605.59;110564;1259;22248;-62
2022/07/15 00:12:19;;;;;;;;;6.67;6.67;;;;;22.22;43.88;100599.47;110731;1258;23493;-63
2022/07/15 00:14:47;;;;;;;;;6.00;6.00;;;;;22.23;44.12;100600.16;110590;1259;18499;-62
2022/07/15 00:17:14;;;;;;;;;7.00;6.67;;;;;22.23;43.79;100600.23;110600;1258;21080;-63
2022/07/15 00:19:41;;;;;;;;;6.50;6.00;;;;;22.23;43.96;100600.30;110614;1258;19554;-62
2022/07/15 00:22:08;;;;;;;;;5.00;5.00;;;;;22.21;43.94;100600.89;110719;1258;18879;-62
2022/07/15 00:24:36;;;;;;;;;6.00;5.67;;;;;22.19;44.03;100598.65;110739;1258;18715;-63
2022/07/15 00:27:03;;;;;;;;;6.67;6.00;;;;;22.20;43.82;100599.75;110572;1258;19790;-62
2022/07/15 00:29:30;;;;;;;;;3.67;3.67;;;;;22.22;43.78;100596.78;110575;1258;22237;-62
2022/07/15 00:31:58;;;;;;;;;5.33;5.33;;;;;22.23;43.71;100591.52;110570;1259;18702;-64
2022/07/15 00:34:25;;;;;;;;;6.00;5.00;;;;;22.21;43.69;100592.02;110594;1258;19577;-62
2022/07/15 00:36:52;;;;;;;;;5.50;5.50;;;;;22.21;43.66;100590.94;110721;1258;20117;-63
2022/07/15 00:39:19;;;;;;;;;6.67;6.67;;;;;22.22;43.73;100588.84;110540;1258;18715;-63
2022/07/15 00:41:47;;;;;;;;;6.33;6.00;;;;;22.22;43.67;100590.20;110778;1258;19930;-62
2022/07/15 00:44:14;;;;;;;;;7.00;6.67;;;;;22.22;43.67;100601.66;110613;1258;18316;-64
2022/07/15 00:46:41;;;;;;;;;6.33;6.00;;;;;22.19;43.66;100603.59;110558;1258;19428;-64
2022/07/15 00:49:08;;;;;;;;;8.33;6.67;;;;;22.13;43.60;100608.23;110524;1259;19535;-61
2022/07/15 00:51:36;;;;;;;;;6.33;6.33;;;;;22.09;43.57;100609.96;110754;1258;18690;-63
2022/07/15 00:54:03;;;;;;;;;7.00;6.33;;;;;22.03;43.89;100610.15;110603;1259;18893;-63
2022/07/15 00:56:30;;;;;;;;;7.33;6.67;;;;;21.99;44.27;100604.16;110564;1258;19522;-66
2022/07/15 00:58:58;;;;;;;;;9.00;9.00;;;;;21.96;44.34;100600.21;110553;1258;22235;-63
2022/07/15 01:01:25;;;;;;;;;10.67;7.00;;;;;21.93;44.84;100594.84;110576;1258;18707;-63
2022/07/15 01:03:53;;;;;;;;;7.00;7.00;;;;;21.93;44.92;100592.02;110533;1259;19992;-62
2022/07/15 01:06:20;;;;;;;;;9.00;8.33;;;;;21.91;45.16;100587.48;110484;1258;19262;-62
2022/07/15 01:08:47;;;;;;;;;7.00;6.00;;;;;21.95;45.19;100592.08;110484;1258;18780;-62
2022/07/15 01:11:14;;;;;;;;;6.67;6.67;;;;;21.94;45.51;100597.49;110542;1259;19717;-63
2022/07/15 01:13:42;;;;;;;;;6.00;6.00;;;;;21.91;45.85;100600.57;110610;1259;18437;-61
2022/07/15 01:16:09;;;;;;;;;7.00;6.33;;;;;21.94;45.76;100602.92;110748;1258;18794;-61
2022/07/15 01:18:36;;;;;;;;;6.00;6.00;;;;;21.97;46.08;100603.98;110541;1259;19632;-62
2022/07/15 01:21:04;;;;;;;;;7.00;7.00;;;;;21.98;46.08;100605.20;110733;1258;18603;-63
2022/07/15 01:23:31;;;;;;;;;7.00;7.00;;;;;21.99;46.34;100611.80;110584;1258;18745;-64
2022/07/15 01:25:58;;;;;;;;;6.33;6.00;;;;;22.00;46.42;100610.77;110609;1259;19601;-63
2022/07/15 01:28:25;;;;;;;;;7.00;7.00;;;;;22.02;46.57;100606.35;110558;1258;20324;-63
2022/07/15 01:30:53;;;;;;;;;7.00;6.67;;;;;21.97;46.63;100597.71;110740;1258;18812;-63
2022/07/15 01:33:20;;;;;;;;;10.00;9.00;;;;;21.97;46.65;100597.09;110705;1259;21250;-64
2022/07/15 01:35:47;;;;;;;;;6.67;6.33;;;;;21.97;46.55;100593.89;110597;1258;19802;-62
2022/07/15 01:38:14;;;;;;;;;9.00;7.00;;;;;21.96;46.37;100590.83;110570;1259;18784;-62
2022/07/15 01:40:42;;;;;;;;;7.00;7.00;;;;;21.96;46.38;100594.56;110594;1259;19796;-63
2022/07/15 01:43:09;;;;;;;;;7.00;6.00;;;;;21.97;46.22;100599.15;110569;1259;18776;-63
2022/07/15 01:45:36;;;;;;;;;7.00;7.00;;;;;21.98;46.52;100594.38;110521;1259;18919;-62
2022/07/15 01:48:03;;;;;;;;;6.00;6.00;;;;;21.96;46.55;100593.81;110734;1258;21903;-63
2022/07/15 01:50:31;;;;;;;;;6.67;6.33;;;;;21.94;46.36;100589.29;110606;1258;18874;-63
2022/07/15 01:52:58;;;;;;;;;7.67;7.67;;;;;21.87;46.66;100588.47;110635;1258;18827;-61
2022/07/15 01:55:25;;;;;;;;;7.67;6.00;;;;;21.82;47.00;100594.91;110685;1258;19516;-61
2022/07/15 01:57:52;;;;;;;;;6.33;6.33;;;;;21.86;46.94;100596.09;110734;1258;19057;-61
2022/07/15 02:00:20;;;;;;;;;7.00;7.00;;;;;21.88;46.66;100600.06;110732;1258;18886;-62
2022/07/15 02:02:47;;;;;;;;;6.67;6.67;;;;;21.88;46.70;100604.98;110750;1258;19679;-62
2022/07/15 02:05:14;;;;;;;;;7.00;6.00;;;;;21.85;47.16;100604.23;110625;1258;18538;-61
2022/07/15 02:07:42;;;;;;;;;7.00;6.50;;;;;21.83;47.09;100602.82;110616;1258;22167;-63
2022/07/15 02:10:09;;;;;;;;;7.67;7.00;;;;;21.75;47.36;100618.80;110745;1258;19575;-64
2022/07/15 02:12:36;;;;;;;;;5.67;5.67;;;;;21.69;47.71;100625.00;110524;1259;22242;-61
2022/07/15 02:15:03;;;;;;;;;6.00;6.00;;;;;21.74;47.68;100631.42;110531;1261;19051;-62
2022/07/15 02:17:31;;;;;;;;;9.00;6.00;;;;;21.73;47.89;100632.97;110551;1259;19637;-61
2022/07/15 02:19:58;;;;;;;;;6.00;5.00;;;;;21.65;47.99;100623.77;110544;1259;18475;-58
2022/07/15 02:22:25;;;;;;;;;8.00;7.00;;;;;21.52;48.43;100633.92;110503;1259;18686;-60
2022/07/15 02:24:52;;;;;;;;;6.00;6.00;;;;;21.56;48.78;100622.97;110731;1258;19581;-60
2022/07/15 02:27:21;;;;;;;;;6.00;5.00;;;;;21.64;48.88;100616.08;110718;1258;18415;-59
2022/07/15 02:29:48;;;;;;;;;4.33;4.33;;;;;21.71;49.09;100611.43;110501;1261;18675;-60
2022/07/15 02:32:15;;;;;;;;;6.33;6.00;;;;;21.74;49.31;100612.32;110626;1258;22065;-59
2022/07/15 02:34:42;;;;;;;;;6.00;6.00;;;;;21.76;49.57;100617.86;110664;1258;22816;-63
2022/07/15 02:37:09;;;;;;;;;5.00;3.00;;;;;21.74;49.74;100611.36;110582;1259;22810;-61
2022/07/15 02:39:42;;;;;;;;;5.67;5.00;;;;;21.69;49.78;100611.27;110346;1259;19577;-63
2022/07/15 02:42:09;;;;;;;;;4.00;4.00;;;;;21.66;49.99;100618.03;110502;1259;22146;-60
2022/07/15 02:44:37;;;;;;;;;5.00;5.00;;;;;21.63;50.46;100618.23;110529;1259;22910;-63
2022/07/15 02:47:04;;;;;;;;;7.00;5.50;;;;;21.63;50.28;100617.14;110499;1261;19380;-61
2022/07/15 02:49:31;;;;;;;;;4.33;4.33;;;;;21.65;50.61;100614.70;110692;1258;21097;-63
2022/07/15 02:51:58;;;;;;;;;5.00;5.00;;;;;21.65;50.84;100621.27;110545;1259;18694;-62
2022/07/15 02:54:26;;;;;;;;;4.33;3.00;;;;;21.63;50.85;100622.23;110510;1258;20266;-63
2022/07/15 02:56:53;;;;;;;;;3.33;3.33;;;;;21.57;51.23;100622.92;110584;1258;22327;-63
2022/07/15 02:59:20;;;;;;;;;5.00;5.00;;;;;21.58;51.11;100618.03;110579;1259;18801;-63
2022/07/15 03:01:48;;;;;;;;;4.67;4.67;;;;;21.57;51.31;100619.27;110572;1258;19573;-62
2022/07/15 03:04:15;;;;;;;;;6.00;6.00;;;;;21.57;51.29;100617.33;110562;1258;18428;-63
2022/07/15 03:06:42;;;;;;;;;6.00;6.00;;;;;21.55;51.17;100624.02;110504;1259;18780;-62
2022/07/15 03:09:09;;;;;;;;;9.50;8.50;;;;;21.56;50.95;100627.54;110548;1259;19737;-63
2022/07/15 03:11:37;;;;;;;;;9.00;7.00;;;;;21.61;50.76;100622.23;110596;1258;18375;-62
2022/07/15 03:14:04;;;;;;;;;7.33;6.33;;;;;21.55;51.06;100626.05;110559;1259;20095;-63
2022/07/15 03:16:31;;;;;;;;;7.00;7.00;;;;;21.55;50.98;100626.17;110607;1258;20484;-64
2022/07/15 03:18:58;;;;;;;;;7.00;5.67;;;;;21.60;50.77;100623.31;110723;1258;22400;-63
2022/07/15 03:21:26;;;;;;;;;9.67;9.00;;;;;21.54;50.95;100627.59;110551;1258;18813;-62
2022/07/15 03:23:54;;;;;;;;;9.00;7.00;;;;;21.49;51.38;100634.80;110626;1259;22672;-62
2022/07/15 03:26:21;;;;;;;;;7.00;7.00;;;;;21.50;51.34;100634.30;110678;1258;18362;-63
2022/07/15 03:28:48;;;;;;;;;9.00;9.00;;;;;21.50;51.16;100637.58;110675;1258;18729;-62
2022/07/15 03:31:16;;;;;;;;;12.00;9.00;;;;;21.49;51.16;100637.27;110569;1258;19696;-63
2022/07/15 03:33:43;;;;;;;;;11.00;10.00;;;;;21.45;51.15;100637.29;110652;1258;18439;-60
2022/07/15 03:36:10;;;;;;;;;9.67;9.33;;;;;21.39;51.41;100640.71;110547;1258;18891;-61
2022/07/15 03:38:38;;;;;;;;;10.33;9.00;;;;;21.32;51.70;100639.20;110397;1261;19474;-62
2022/07/15 03:41:06;;;;;;;;;10.50;10.50;;;;;21.29;51.48;100639.73;110552;1259;18448;-64
2022/07/15 03:43:33;;;;;;;;;7.00;7.00;;;;;21.25;51.73;100643.42;110545;1259;18809;-64
2022/07/15 03:46:00;;;;;;;;;7.00;7.00;;;;;21.25;52.03;100647.64;110555;1259;19652;-62
2022/07/15 03:48:27;;;;;;;;;7.00;6.00;;;;;21.30;51.58;100654.54;110534;1259;18443;-62
2022/07/15 03:50:55;;;;;;;;;5.00;5.00;;;;;21.25;51.90;100652.59;110765;1258;18784;-62
2022/07/15 03:53:22;;;;;;;;;6.00;6.00;;;;;21.22;51.95;100652.88;110617;1258;29608;-63
2022/07/15 03:55:49;;;;;;;;;8.00;7.00;;;;;21.21;52.21;100649.23;110643;1258;18581;-63
2022/07/15 03:58:17;;;;;;;;;6.67;6.00;;;;;21.27;51.94;100645.63;110742;1258;19140;-63
2022/07/15 04:00:44;;;;;;;;;7.67;7.33;;;;;21.29;52.08;100650.09;110518;1258;19446;-63
2022/07/15 04:03:11;;;;;;;;;6.00;5.67;;;;;21.25;52.05;100652.14;110570;1258;18580;-63
2022/07/15 04:05:39;;;;;;;;;6.00;6.00;;;;;21.27;51.98;100644.11;110509;1261;18773;-63
2022/07/15 04:08:06;;;;;;;;;7.00;7.00;;;;;21.26;52.18;100649.20;110637;1259;22936;-63
2022/07/15 04:10:34;;;;;;;;;7.67;7.67;;;;;21.26;51.89;100650.30;110683;1258;21789;-64
2022/07/15 04:13:01;;;;;;;;;7.00;7.00;;;;;21.30;51.88;100655.94;110483;1259;18690;-64
2022/07/15 04:15:29;;;;;;;;;7.00;7.00;;;;;21.29;51.81;100657.19;110479;1259;22387;-62
2022/07/15 04:17:58;;;;;;;;;7.00;6.67;;;;;21.34;51.75;100657.44;110636;1258;18930;-61
2022/07/15 04:20:25;;;;;;;;;6.00;6.00;;;;;21.33;51.73;100652.71;110591;1259;18996;-60
2022/07/15 04:22:53;;;;;;;;;7.00;6.00;;;;;21.33;51.83;100657.77;110549;1259;19785;-61
2022/07/15 04:25:20;;;;;;;;;5.33;5.00;;;;;21.37;51.78;100662.26;110558;1259;18931;-63
2022/07/15 04:27:48;;;;;;;;;5.00;5.00;;;;;21.34;51.97;100660.27;110550;1258;18651;-64
2022/07/15 04:30:16;;;;;;;;;5.00;5.00;;;;;21.25;52.21;100661.69;110763;1259;19636;-62
2022/07/15 04:32:43;;;;;;;;;6.67;6.00;;;;;21.26;52.16;100658.70;110725;1258;22057;-63
2022/07/15 04:35:10;;;;;;;;;7.00;6.00;;;;;21.30;52.13;100661.02;110671;1258;24408;-63
2022/07/15 04:37:37;;;;;;;;;9.33;9.33;;;;;21.39;51.95;100666.23;110660;1258;19532;-62
2022/07/15 04:40:11;;;;;;;;;9.00;9.00;;;;;21.42;51.91;100670.05;110560;1259;19087;-62
2022/07/15 04:42:38;;;;;;;;;6.00;6.00;;;;;21.38;52.12;100670.80;110584;1258;18794;-63
2022/07/15 04:45:05;;;;;;;;;8.33;6.00;;;;;21.40;52.18;100670.58;110765;1258;21963;-63
2022/07/15 04:47:32;;;;;;;;;7.00;7.00;;;;;21.30;51.88;100671.91;110561;1258;18419;-62
2022/07/15 04:52:45;;;;;;;;;6.00;5.67;;;;;21.25;52.42;100674.02;110645;1258;19594;-62
2022/07/15 04:55:12;;;;;;;;;6.50;6.50;;;;;21.36;52.10;100678.36;110598;1258;18589;-62
2022/07/15 04:57:39;;;;;;;;;9.00;8.00;;;;;21.39;51.94;100678.75;110488;1259;18836;-63
2022/07/15 05:00:06;;;;;;;;;9.50;9.50;;;;;21.34;51.90;100681.77;110765;1258;19469;-62
2022/07/15 05:02:34;;;;;;;;;6.00;6.00;;;;;21.34;52.16;100677.61;110582;1258;18494;-64
2022/07/15 05:05:01;;;;;;;;;11.00;9.00;;;;;21.28;52.16;100678.02;110655;1259;18967;-62
2022/07/15 05:07:28;;;;;;;;;10.00;8.00;;;;;21.30;52.24;100682.52;110709;1258;19517;-61
2022/07/15 05:09:55;;;;;;;;;12.50;9.00;;;;;21.45;52.10;100676.42;110765;1259;19003;-63
2022/07/15 05:12:23;;;;;;;;;6.00;5.33;;;;;21.52;51.53;100676.17;110764;1258;22719;-61
2022/07/15 05:14:50;;;;;;;;;6.00;6.00;;;;;21.30;51.99;100682.09;110784;1258;19557;-63
2022/07/15 05:17:17;;;;;;;;;5.00;5.00;;;;;21.36;52.03;100678.53;110670;1258;18515;-61
2022/07/15 05:19:45;;;;;;;;;6.00;6.00;;;;;21.43;52.02;100678.54;110738;1258;18797;-62
2022/07/15 05:22:13;;;;;;;;;6.00;6.00;;;;;21.47;51.87;100688.70;110718;1258;19610;-63
2022/07/15 05:24:40;;;;;;;;;6.00;5.50;;;;;21.75;51.40;100689.51;110515;1259;22688;-63
2022/07/15 05:27:07;;;;;;;;;7.00;6.00;;;;;22.02;50.69;100687.06;110716;1258;18844;-64
2022/07/15 05:29:35;;;;;;;;;8.00;6.33;;;;;22.03;50.87;100691.56;110524;1257;19931;-64
2022/07/15 05:32:02;;;;;;;;;6.67;5.67;;;;;21.81;51.66;100696.34;110562;1259;18619;-62
2022/07/15 05:34:29;;;;;;;;;6.00;6.00;;;;;21.71;51.83;100699.10;110558;1259;19373;-63
2022/07/15 05:36:56;;;;;;;;;5.00;5.00;;;;;21.50;52.38;100699.63;110705;1258;19584;-63
2022/07/15 05:39:24;;;;;;;;;6.33;6.33;;;;;21.44;52.68;100698.44;110549;1259;22839;-63
2022/07/15 05:41:51;;;;;;;;;7.00;7.00;;;;;21.53;52.40;100696.22;110686;1258;18779;-64
2022/07/15 05:44:18;;;;;;;;;6.50;6.00;;;;;21.54;52.06;100698.91;110725;1258;19486;-63
2022/07/15 05:46:45;;;;;;;;;9.00;9.00;;;;;21.57;52.10;100698.50;110681;1258;18737;-63
2022/07/15 05:49:13;;;;;;;;;6.33;6.00;;;;;21.65;52.05;100699.25;110609;1258;23853;-63
2022/07/15 05:51:40;;;;;;;;;5.50;5.00;;;;;21.65;51.86;100699.98;110697;1258;21128;-60
2022/07/15 05:54:07;;;;;;;;;5.67;5.67;;;;;21.48;51.85;100696.49;110582;1258;18917;-59
2022/07/15 05:56:35;;;;;;;;;6.00;6.00;;;;;21.46;52.18;100698.80;110530;1258;22855;-62
2022/07/15 05:59:02;;;;;;;;;5.00;5.00;;;;;21.48;52.10;100701.10;110577;1258;19632;-60
2022/07/15 06:01:29;;;;;;;;;5.33;5.00;;;;;21.63;52.02;100703.09;110618;1258;18535;-61
2022/07/15 06:03:56;;;;;;;;;6.33;6.33;;;;;21.65;51.37;100705.63;110624;1258;22367;-60
2022/07/15 06:06:23;;;;;;;;;6.00;6.00;;;;;21.66;51.32;100707.79;110539;1259;19616;-64
2022/07/15 06:08:51;;;;;;;;;8.00;7.00;;;;;21.58;51.34;100712.58;110677;1259;18441;-61
2022/07/15 06:11:19;;;;;;;;;7.00;7.00;;;;;21.50;51.52;100708.69;110553;1258;18902;-61
2022/07/15 06:13:47;;;;;;;;;6.00;6.00;;;;;21.54;51.16;100717.95;110580;1259;22268;-61
2022/07/15 06:16:14;;;;;;;;;5.33;5.33;;;;;21.48;51.23;100718.10;110595;1258;18695;-61
2022/07/15 06:18:42;;;;;;;;;6.00;6.00;;;;;21.66;50.90;100721.55;110574;1258;18845;-62
2022/07/15 06:21:09;;;;;;;;;6.00;6.00;;;;;21.64;50.86;100726.81;110575;1258;19555;-62
2022/07/15 06:23:37;;;;;;;;;7.33;6.67;;;;;21.65;51.04;100722.48;110357;1258;18518;-64
2022/07/15 06:26:04;;;;;;;;;6.00;6.00;;;;;21.68;50.69;100728.02;110475;1259;20069;-62
2022/07/15 06:28:31;;;;;;;;;5.33;5.33;;;;;21.61;51.21;100730.83;110673;1258;19676;-63
2022/07/15 06:30:58;;;;;;;;;6.00;6.00;;;;;21.68;50.94;100734.21;110490;1258;18455;-62
2022/07/15 06:33:27;;;;;;;;;5.33;5.33;;;;;21.77;50.86;100734.05;110490;1259;22770;-60
2022/07/15 06:35:54;;;;;;;;;5.00;5.00;;;;;21.77;50.57;100737.14;110573;1258;20385;-63
2022/07/15 06:38:22;;;;;;;;;7.00;6.00;;;;;21.69;51.02;100739.27;110473;1259;18387;-58
2022/07/15 06:40:49;;;;;;;;;6.00;6.00;;;;;21.65;50.94;100743.63;110601;1259;19007;-62
2022/07/15 06:43:16;;;;;;;;;5.00;5.00;;;;;21.69;51.18;100744.64;110569;1259;21138;-64
2022/07/15 06:45:43;;;;;;;;;6.00;6.00;;;;;21.60;51.64;100750.73;110735;1258;25192;-65
2022/07/15 06:48:11;;;;;;;;;6.00;6.00;;;;;21.59;51.55;100749.35;110533;1259;18910;-63
2022/07/15 06:50:38;;;;;;;;;6.00;6.00;;;;;21.54;51.66;100761.60;110586;1259;20819;-63
2022/07/15 06:53:05;;;;;;;;;10.00;9.00;;;;;21.69;51.20;100755.83;110613;1258;18356;-63
2022/07/15 06:55:32;;;;;;;;;11.50;10.50;;;;;21.72;51.02;100755.55;110530;1257;18614;-64
2022/07/15 06:58:00;;;;;;;;;13.00;12.33;;;;;21.69;50.83;100755.11;110485;1259;22259;-63
2022/07/15 07:00:27;;;;;;;;;12.00;10.00;;;;;21.93;49.90;100754.02;110722;1258;18815;-64
2022/07/15 07:02:54;;;;;;;;;10.00;10.00;;;;;21.91;49.53;100756.12;110604;1259;19028;-64
2022/07/15 07:05:21;;;;;;;;;10.00;9.33;;;;;21.95;49.35;100761.64;110700;1258;19571;-63
2022/07/15 07:07:49;;;;;;;;;10.67;9.67;;;;;21.88;48.95;100764.27;110712;1258;18888;-64
2022/07/15 07:10:16;;;;;;;;;9.00;7.00;;;;;21.78;48.80;100766.09;110683;1258;19162;-63
2022/07/15 07:12:43;;;;;;;;;6.00;6.00;;;;;21.79;48.91;100767.75;110652;1259;21640;-61
2022/07/15 07:15:11;;;;;;;;;6.67;6.33;;;;;21.79;48.46;100768.33;110759;1258;18532;-62
2022/07/15 07:17:38;;;;;;;;;7.00;7.00;;;;;21.77;48.18;100771.83;110660;1258;18751;-62
2022/07/15 07:20:05;;;;;;;;;10.33;9.67;;;;;21.81;48.05;100770.73;110693;1258;19484;-62
2022/07/15 07:22:32;;;;;;;;;6.00;6.00;;;;;21.89;48.02;100770.02;110620;1258;22274;-63
2022/07/15 07:25:00;;;;;;;;;5.00;5.00;;;;;21.84;48.10;100766.65;110638;1259;23604;-63
2022/07/15 07:27:27;;;;;;;;;5.00;5.00;;;;;21.78;48.01;100770.17;110507;1259;22002;-62
2022/07/15 07:29:55;;;;;;;;;6.00;6.00;;;;;21.76;47.91;100771.05;110776;1258;18435;-62
2022/07/15 07:32:22;;;;;;;;;5.00;5.00;;;;;21.68;48.30;100777.79;110481;1258;19005;-61
2022/07/15 07:34:50;;;;;;;;;6.00;6.00;;;;;21.68;47.95;100778.58;110560;1258;19587;-61
2022/07/15 07:37:17;;;;;;;;;6.33;6.33;;;;;21.85;47.59;100776.70;110543;1259;18613;-62
2022/07/15 07:39:44;;;;;;;;;5.00;5.00;;;;;21.96;47.23;100774.98;110482;1259;22226;-63
2022/07/15 07:42:13;;;;;;;;;7.00;7.00;;;;;21.99;47.06;100780.40;110341;1259;529661;-62
2022/07/15 07:44:40;;;;;;;;;6.00;6.00;;;;;21.96;47.16;100785.04;110670;1258;18385;-64
2022/07/15 07:47:08;;;;;;;;;6.00;6.00;;;;;21.93;47.03;100786.21;110614;1258;19069;-60
2022/07/15 07:49:35;;;;;;;;;7.33;7.00;;;;;21.98;47.09;100786.91;110556;1259;21886;-62
2022/07/15 07:52:02;;;;;;;;;5.00;5.00;;;;;22.05;47.12;100798.09;110518;1259;18513;-62
2022/07/15 07:54:30;;;;;;;;;5.33;5.00;;;;;21.98;46.93;100794.36;110465;1259;18721;-63
2022/07/15 07:56:57;;;;;;;;;5.67;5.67;;;;;22.02;47.07;100798.59;110693;1258;20904;-62
2022/07/15 07:59:24;;;;;;;;;5.00;5.00;;;;;22.05;47.13;100803.88;110522;1259;18833;-61
2022/07/15 08:01:51;;;;;;;;;6.67;6.00;;;;;21.91;46.95;100801.75;110575;1259;18705;-63
2022/07/15 08:04:19;;;;;;;;;6.67;6.67;;;;;21.79;47.23;100802.09;110589;1258;22609;-64
2022/07/15 08:06:46;;;;;;;;;6.00;5.33;;;;;21.78;46.95;100810.23;110637;1258;18571;-63
2022/07/15 08:09:14;;;;;;;;;6.00;6.00;;;;;21.68;46.80;100814.52;110555;1258;18579;-63
2022/07/15 08:11:42;;;;;;;;;6.00;6.00;;;;;21.61;46.82;100810.64;110617;1259;21820;-63
2022/07/15 08:14:10;;;;;;;;;5.67;5.67;;;;;21.64;46.88;100810.45;110583;1259;18818;-63
2022/07/15 08:16:41;;;;;;;;;6.00;6.00;;;;;21.56;47.07;100810.43;110677;1259;18897;-63
2022/07/15 08:19:09;;;;;;;;;6.33;6.33;;;;;21.54;46.89;100812.31;110701;1258;19779;-62
2022/07/15 08:21:36;;;;;;;;;6.67;6.67;;;;;21.50;46.88;100813.40;110491;1258;18421;-62
2022/07/15 08:24:04;;;;;;;;;6.67;6.67;;;;;21.45;46.67;100813.41;110558;1259;18762;-62
2022/07/15 08:26:31;;;;;;;;;10.00;9.67;;;;;21.35;46.90;100817.27;110512;1257;19778;-62
2022/07/15 08:28:58;;;;;;;;;7.00;7.00;;;;;21.20;46.94;100816.34;110624;1258;18682;-64
2022/07/15 08:31:25;;;;;;;;;7.00;7.00;;;;;21.14;47.42;100814.35;110719;1258;18817;-63
2022/07/15 08:33:53;;;;;;;;;9.00;9.00;;;;;21.32;47.38;100813.84;110757;1258;19600;-63
2022/07/15 08:36:21;;;;;;;;;7.00;7.00;;;;;21.60;47.38;100816.63;110520;1259;21663;-63
2022/07/15 08:38:48;;;;;;;;;6.00;6.00;;;;;21.74;46.32;100820.16;110675;1259;22881;-63
2022/07/15 08:41:16;;;;;;;;;5.00;5.00;;;;;21.65;46.10;100816.67;110638;1258;19687;-65
2022/07/15 08:43:43;;;;;;;;;8.67;7.00;;;;;21.35;46.39;100824.24;110638;1258;21132;-64
2022/07/15 08:46:10;;;;;;;;;6.00;6.00;;;;;21.39;46.35;100825.52;110480;1259;18781;-61
2022/07/15 08:48:38;;;;;;;;;7.00;6.00;;;;;21.27;46.45;100826.27;110775;1259;19667;-62
2022/07/15 08:51:05;;;;;;;;;6.00;5.67;;;;;21.15;46.91;100824.56;110717;1258;20171;-63
2022/07/15 08:53:33;;;;;;;;;8.00;6.00;;;;;21.24;46.98;100827.52;110677;1258;18798;-62
2022/07/15 08:56:01;;;;;;;;;8.00;5.00;;;;;21.23;47.24;100825.39;110592;1259;19645;-62
2022/07/15 08:58:28;;;;;;;;;7.00;6.00;;;;;21.31;47.42;100821.96;110510;1258;20956;-64
2022/07/15 09:00:55;;;;;;;;;4.67;4.67;;;;;21.35;46.84;100819.69;110513;1259;18806;-62
2022/07/15 09:03:23;;;;;;;;;5.00;5.00;;;;;21.37;46.32;100816.76;110554;1258;23152;-62
2022/07/15 09:05:50;;;;;;;;;5.00;5.00;;;;;21.41;45.71;100812.64;110707;1257;22679;-62
2022/07/15 09:08:19;;;;;;;;;15.67;15.33;;;;;21.38;45.17;100810.45;110609;1258;18814;-63
2022/07/15 09:10:46;;;;;;;;;13.00;13.00;;;;;21.31;44.78;100808.30;110592;1258;19513;-62
2022/07/15 09:13:13;;;;;;;;;9.50;8.00;;;;;21.49;44.54;100814.77;110699;1258;22416;-63
2022/07/15 09:15:40;;;;;;;;;6.00;6.00;;;;;21.55;44.62;100815.56;110523;1258;19003;-63
2022/07/15 09:18:08;;;;;;;;;6.00;6.00;;;;;21.46;44.52;100818.17;110589;1259;20483;-62
2022/07/15 09:20:36;;;;;;;;;5.00;5.00;;;;;21.33;44.45;100820.12;110667;1258;18465;-63
2022/07/15 09:23:03;;;;;;;;;7.00;7.00;;;;;21.47;44.28;100821.70;110710;1258;18610;-62
2022/07/15 09:25:33;;;;;;;;;8.00;6.00;;;;;21.62;43.95;100822.54;110416;1259;19663;-61
2022/07/15 09:28:01;;;;;;;;;7.00;6.00;;;;;21.60;43.85;100825.62;110580;1259;18610;-63
2022/07/15 09:36:05;;;;;;;;;4.00;4.00;;;;;20.97;43.80;100839.69;110772;1258;22386;-62
2022/07/15 09:38:32;;;;;;;;;5.00;4.00;;;;;21.02;43.53;100838.41;110712;1258;18782;-63
2022/07/15 09:41:00;;;;;;;;;2.00;2.00;;;;;21.24;43.51;100845.35;110579;1258;22258;-63
2022/07/15 09:43:27;;;;;;;;;4.50;4.50;;;;;21.27;43.43;100843.55;110543;1258;22242;-61
2022/07/15 09:45:54;;;;;;;;;4.00;2.00;;;;;21.28;43.44;100841.59;110708;1258;18794;-62
2022/07/15 09:48:21;;;;;;;;;4.00;4.00;;;;;21.30;43.48;100842.60;110570;1259;19516;-60
2022/07/15 09:50:49;;;;;;;;;4.33;4.33;;;;;21.32;43.16;100844.14;110487;1259;21872;-63
2022/07/15 09:53:16;;;;;;;;;4.00;4.00;;;;;21.38;43.20;100840.48;110699;1258;18702;-63
2022/07/15 09:55:44;;;;;;;;;4.00;3.33;;;;;21.51;42.98;100839.27;110669;1259;19612;-62
2022/07/15 09:58:11;;;;;;;;;4.00;4.00;;;;;21.51;42.74;100844.48;110453;1259;18471;-62
2022/07/15 10:00:38;;;;;;;;;5.00;4.50;;;;;21.41;42.78;100852.29;110509;1259;18771;-61
2022/07/15 10:03:05;;;;;;;;;4.00;4.00;;;;;21.32;42.79;100858.71;110515;1258;19580;-63
2022/07/15 10:05:32;;;;;;;;;4.00;4.00;;;;;21.30;42.53;100862.65;110520;1258;18648;-63
2022/07/15 10:08:00;;;;;;;;;5.50;5.50;;;;;21.43;42.55;100864.62;110493;1258;20114;-63
2022/07/15 10:10:28;;;;;;;;;5.00;4.00;;;;;21.45;42.51;100865.45;110483;1259;19722;-64
2022/07/15 10:12:55;;;;;;;;;2.00;2.00;;;;;21.51;42.55;100862.94;110577;1258;18426;-62
2022/07/15 10:15:23;;;;;;;;;4.33;4.00;;;;;21.52;42.37;100857.30;110652;1258;18930;-62
2022/07/15 10:17:50;;;;;;;;;2.00;2.00;;;;;21.71;42.10;100856.49;110672;1258;19853;-62
2022/07/15 10:20:17;;;;;;;;;5.00;5.00;;;;;21.74;41.85;100854.06;110641;1258;18509;-63
2022/07/15 10:22:44;;;;;;;;;4.00;4.00;;;;;21.67;41.75;100849.17;110670;1259;19933;-63
2022/07/15 10:25:12;;;;;;;;;6.00;5.00;;;;;21.72;41.81;100851.86;110715;1258;19756;-65
2022/07/15 10:27:40;;;;;;;;;2.67;2.67;;;;;21.74;41.76;100857.55;110740;1258;18561;-64
2022/07/15 10:30:07;;;;;;;;;5.00;5.00;;;;;21.73;41.89;100857.02;110575;1259;21598;-63
2022/07/15 10:32:34;;;;;;;;;2.00;2.00;;;;;21.74;41.94;100858.90;110557;1258;19549;-63
2022/07/15 10:35:01;;;;;;;;;3.00;3.00;;;;;21.71;41.54;100858.73;110627;1258;18989;-65
2022/07/15 10:37:28;;;;;;;;;2.00;2.00;;;;;21.76;41.30;100853.23;110524;1259;19045;-64
2022/07/15 10:39:57;;;;;;;;;5.00;5.00;;;;;21.78;41.26;100860.80;110693;1258;19806;-61
2022/07/15 10:42:24;;;;;;;;;4.00;4.00;;;;;21.76;41.18;100860.46;110558;1259;18592;-61
2022/07/15 10:44:52;;;;;;;;;3.00;3.00;;;;;21.65;41.28;100860.25;110577;1258;18964;-61
2022/07/15 10:47:20;;;;;;;;;2.67;2.67;;;;;21.57;41.25;100864.73;110550;1258;22616;-62
2022/07/15 10:49:47;;;;;;;;;6.00;5.00;;;;;21.59;41.47;100865.98;110761;1259;18793;-64
2022/07/15 10:52:14;;;;;;;;;2.00;2.00;;;;;21.53;41.40;100865.20;110554;1259;18760;-62
2022/07/15 10:54:42;;;;;;;;;4.00;4.00;;;;;21.51;41.70;100862.00;110562;1258;19789;-63
2022/07/15 10:57:09;;;;;;;;;5.00;5.00;;;;;21.55;41.93;100863.61;110582;1258;22612;-63
2022/07/15 10:59:36;;;;;;;;;4.00;2.00;;;;;21.56;41.82;100862.16;110674;1258;18830;-63
2022/07/15 11:02:04;;;;;;;;;2.67;2.67;;;;;21.56;41.82;100862.90;110595;1258;19455;-63
2022/07/15 11:04:31;;;;;;;;;2.67;2.67;;;;;21.56;41.59;100865.43;110545;1259;20613;-62
2022/07/15 11:06:59;;;;;;;;;4.00;4.00;;;;;21.66;41.61;100858.86;110658;1258;18955;-63
2022/07/15 11:09:26;;;;;;;;;4.00;4.00;;;;;21.71;41.44;100857.27;110660;1258;21844;-61
2022/07/15 11:11:53;;;;;;;;;4.33;4.00;;;;;21.72;41.28;100856.23;110752;1259;18563;-62
2022/07/15 11:14:20;;;;;;;;;3.00;3.00;;;;;21.74;41.36;100857.85;110595;1258;21797;-64
2022/07/15 11:16:48;;;;;;;;;2.67;2.00;;;;;21.77;41.05;100859.16;110601;1259;20913;-62
2022/07/15 11:19:15;;;;;;;;;3.00;3.00;;;;;21.76;41.17;100854.70;110480;1259;18578;-61
2022/07/15 11:21:42;;;;;;;;;6.67;3.67;;;;;21.81;40.97;100857.73;110538;1259;18798;-63
2022/07/15 11:24:10;;;;;;;;;3.67;3.00;;;;;21.86;40.87;100851.08;110514;1259;20108;-61
2022/07/15 11:26:37;;;;;;;;;6.00;5.00;;;;;21.85;40.96;100849.77;110476;1260;20236;-63
2022/07/15 11:29:04;;;;;;;;;4.67;4.67;;;;;21.90;40.81;100849.59;110456;1261;19302;-61